Terminal Aerodrome Forecast
Issued by NWS Twin Cities, MN

Home | Current Version | Previous Version | Text Only | Print | Product List | Glossary Off
Versions: 1 2 3 4 5 6 7 8 9 10 11 12 13 14

000
FTUS43 KMPX 021140
TAFEAU
TAF
KEAU 021140Z 0212/0312 22003KT P6SM SKC
     FM030000 16007KT P6SM OVC100
     FM031000 14008KT 2SM -SN BR OVC020=

USA.gov is the U.S. government's official web portal to all federal, state and local government web resources and services.